Benson, Utah
Current Conditions -  °F | °C
As of 9:51 AM on Sunday 23 Nov 2014 (Local Time) from KLGU Reporting Station
Scattered Clouds Scattered Clouds  
Wind Chill: 30°   Ceiling: Unl
Heat Index: 34°   Visibility: 10mi
Dew Point: 28°   Wind: 5mph
Humidity: 79%   Direction: 160°SSE
Pressure: 30.19"   Gusts: NA
Location:  41.8466°N, 111.898°W
Report Text: KLGU 231651Z AUTO 16004KT 10SM FEW025 FEW036 SCT055 01/M02 A3019 RMK AO2 SLP233 T00111022
Loading
Personal Weather Stations






























Interactive Weather Map New forecast layout! Learn more

10-Day Weather Forecast

Advertisements
Track Severe Weather on mobile